createdAt,value
2023-01-05T00:41:04.680Z,0.00
2023-01-05T00:42:01.354Z,0.00
2023-01-05T00:43:00.937Z,0.00
2023-01-05T00:47:16.893Z,0.00
2023-01-05T00:53:15.856Z,0.00
2023-01-05T00:53:54.830Z,0.00
2023-01-05T00:54:54.825Z,0.00
2023-01-05T00:55:54.810Z,0.00
2023-01-05T00:56:54.813Z,0.00
2023-01-05T00:57:54.800Z,0.00
2023-01-05T00:58:54.796Z,0.00
2023-01-05T00:59:54.763Z,0.00
2023-01-05T01:00:54.815Z,0.00
2023-01-05T01:01:54.932Z,0.00
2023-01-05T01:02:54.772Z,0.00
2023-01-05T01:03:54.722Z,0.00
2023-01-05T01:04:54.709Z,0.00
2023-01-05T01:05:54.693Z,0.00
2023-01-05T01:06:54.856Z,0.00
2023-01-05T01:07:57.597Z,0.00
2023-01-05T01:10:48.246Z,0.00
2023-01-05T01:11:27.073Z,0.00
2023-01-05T01:12:27.090Z,0.00
2023-01-05T01:13:27.046Z,0.00
2023-01-05T01:14:27.045Z,0.00
2023-01-05T01:15:27.027Z,0.00
2023-01-05T01:16:27.029Z,0.00
2023-01-05T01:17:27.015Z,0.00
2023-01-05T01:18:26.998Z,0.00
2023-01-05T01:19:26.985Z,0.00
2023-01-05T01:20:26.970Z,0.00
2023-01-05T01:21:26.952Z,0.00
2023-01-05T01:22:26.957Z,0.00
2023-01-05T01:23:26.930Z,0.00
2023-01-05T01:24:26.927Z,0.00
2023-01-05T01:25:26.949Z,0.00
2023-01-05T01:26:26.902Z,0.00
2023-01-05T01:27:26.889Z,0.00
2023-01-05T01:28:26.919Z,0.00
2023-01-05T01:29:26.917Z,0.00
2023-01-05T01:30:26.930Z,0.00
2023-01-05T01:31:26.849Z,0.00
2023-01-05T01:32:26.880Z,0.00
2023-01-05T01:33:26.847Z,0.00
2023-01-05T01:34:26.817Z,0.00
2023-01-05T01:35:26.807Z,0.00
2023-01-05T01:36:26.811Z,0.00
2023-01-05T01:37:26.826Z,0.00
2023-01-05T01:38:26.797Z,0.00
2023-01-05T01:39:26.771Z,0.00
2023-01-05T01:40:26.762Z,0.00
2023-01-05T01:41:26.753Z,0.00
2023-01-05T01:42:26.741Z,0.00
2023-01-05T01:43:26.741Z,0.00
2023-01-05T01:44:26.725Z,0.00
2023-01-05T01:45:26.711Z,0.00
2023-01-05T01:46:26.754Z,0.00
2023-01-05T01:47:26.682Z,0.00
2023-01-05T01:48:26.686Z,0.00
2023-01-05T01:49:26.669Z,0.00
2023-01-05T01:50:26.654Z,0.00
2023-01-05T01:51:26.640Z,0.00
2023-01-05T01:52:27.209Z,0.00
2023-01-05T01:53:26.636Z,0.00
2023-01-05T01:54:26.622Z,0.00
2023-01-05T01:55:27.357Z,0.00
2023-01-05T01:56:26.599Z,0.00
2023-01-05T01:57:26.583Z,0.00
2023-01-05T01:58:27.829Z,0.00
2023-01-05T01:59:26.564Z,0.00
2023-01-05T02:00:26.561Z,0.00
2023-01-05T02:01:27.318Z,0.00
2023-01-05T02:02:26.647Z,0.00
2023-01-05T02:03:26.544Z,0.00
2023-01-05T02:04:29.104Z,0.00
2023-01-05T02:05:26.502Z,0.00
2023-01-05T02:06:26.492Z,0.00
2023-01-05T02:07:28.180Z,0.00
2023-01-05T02:08:26.477Z,0.00
2023-01-05T02:09:26.466Z,0.00
2023-01-05T02:10:29.833Z,0.00
2023-01-05T02:11:26.442Z,0.00
2023-01-05T02:12:26.424Z,0.00
2023-01-05T02:13:31.428Z,0.00
2023-01-05T02:14:27.402Z,0.00
2023-01-05T02:15:26.392Z,0.00
2023-01-05T02:16:27.900Z,0.00
2023-01-05T02:17:26.381Z,0.00
2023-01-05T02:18:26.378Z,0.00
2023-01-05T02:19:30.208Z,0.00
2023-01-05T02:20:26.339Z,0.00
2023-01-05T02:21:26.327Z,0.00
2023-01-05T02:22:26.318Z,0.00
2023-01-05T02:23:26.324Z,0.00
2023-01-05T02:24:26.297Z,0.00
2023-01-05T02:25:26.290Z,0.00
2023-01-05T02:26:26.282Z,0.00
2023-01-05T02:27:26.267Z,0.00
2023-01-05T02:28:26.253Z,0.00
2023-01-05T02:29:26.255Z,0.00
2023-01-05T02:30:26.303Z,0.00
2023-01-05T02:31:26.226Z,0.00
2023-01-05T02:32:26.221Z,0.00
2023-01-05T02:33:26.204Z,0.00
2023-01-05T02:34:26.205Z,0.00
2023-01-05T02:35:26.182Z,0.00
2023-01-05T02:36:28.727Z,0.00
2023-01-05T02:37:26.166Z,0.00
2023-01-05T02:38:26.157Z,0.00
2023-01-05T02:39:26.161Z,0.00
2023-01-05T02:40:26.155Z,0.00
2023-01-05T02:41:26.129Z,0.00
2023-01-05T02:42:26.110Z,0.00
2023-01-05T02:43:26.101Z,0.00
2023-01-05T02:44:26.107Z,0.00
2023-01-05T02:45:26.083Z,0.00
2023-01-05T02:46:26.107Z,0.00
2023-01-05T02:47:26.068Z,0.00
2023-01-05T02:48:26.066Z,0.00
2023-01-05T02:49:26.053Z,0.00
2023-01-05T02:50:26.030Z,0.00
2023-01-05T02:51:26.036Z,0.00
2023-01-05T02:52:26.012Z,0.00
2023-01-05T02:53:26.005Z,0.00
2023-01-05T02:54:26.009Z,0.00
2023-01-05T02:55:25.996Z,0.00
2023-01-05T02:56:25.973Z,0.00
2023-01-05T02:57:25.960Z,0.00
2023-01-05T02:58:25.973Z,0.00
2023-01-05T02:59:25.954Z,0.00
2023-01-05T03:00:25.934Z,0.00
2023-01-05T03:01:26.015Z,0.00
2023-01-05T03:02:26.211Z,0.00
2023-01-05T03:03:26.088Z,0.00
2023-01-05T03:04:25.919Z,0.00
2023-01-05T03:05:25.887Z,0.00
2023-01-05T03:06:25.862Z,0.00
2023-01-05T03:07:25.854Z,0.00
2023-01-05T03:08:32.351Z,0.00
2023-01-05T03:09:26.856Z,0.00
2023-01-05T03:10:25.840Z,0.00
2023-01-05T03:11:25.831Z,0.00
2023-01-05T03:12:25.812Z,0.00
2023-01-05T03:13:25.795Z,0.00
2023-01-05T03:14:25.805Z,0.00
2023-01-05T03:15:25.777Z,0.00
2023-01-05T03:16:25.912Z,0.00
2023-01-05T03:17:26.723Z,0.00
2023-01-05T03:18:25.741Z,0.00
2023-01-05T03:19:25.746Z,0.00
2023-01-05T03:20:26.769Z,0.00
2023-01-05T03:21:25.709Z,0.00
2023-01-05T03:22:26.905Z,0.00
2023-01-05T03:23:28.055Z,0.00
2023-01-05T03:24:26.890Z,0.00
2023-01-05T03:25:26.879Z,0.00
2023-01-05T03:26:28.052Z,0.00
2023-01-05T03:27:26.849Z,0.00
2023-01-05T03:28:26.828Z,0.00
2023-01-05T03:29:28.493Z,0.00
2023-01-05T03:30:26.814Z,0.00
2023-01-05T03:31:26.813Z,0.00
2023-01-05T03:32:34.766Z,0.00
2023-01-05T03:33:28.816Z,0.00
2023-01-05T03:34:26.804Z,0.00
2023-01-05T03:35:29.237Z,0.00
2023-01-05T03:36:27.789Z,0.00
2023-01-05T03:37:26.719Z,0.00
2023-01-05T03:38:29.556Z,0.00
2023-01-05T03:39:26.741Z,0.00
2023-01-05T03:40:26.697Z,0.00
2023-01-05T03:41:30.146Z,0.00
2023-01-05T03:42:26.678Z,0.00
2023-01-05T03:43:26.668Z,0.00
2023-01-05T03:44:30.758Z,0.00
2023-01-05T03:45:26.649Z,0.00
2023-01-05T03:46:26.676Z,0.00
2023-01-05T03:47:27.746Z,0.00
2023-01-05T03:48:26.625Z,0.00
2023-01-05T03:49:26.592Z,0.00
2023-01-05T03:50:27.316Z,0.00
2023-01-05T03:51:26.618Z,0.00
2023-01-05T03:52:26.594Z,0.00
2023-01-05T03:53:26.556Z,0.00
2023-01-05T03:54:26.577Z,0.00
2023-01-05T03:55:26.557Z,0.00
2023-01-05T03:56:26.536Z,0.00
2023-01-05T03:57:26.535Z,0.00
2023-01-05T03:58:26.520Z,0.00
2023-01-05T03:59:26.522Z,0.00
2023-01-05T04:00:26.488Z,0.00
2023-01-05T04:01:26.604Z,0.00
2023-01-05T04:02:26.695Z,0.00
2023-01-05T04:03:31.624Z,0.00
2023-01-05T04:04:28.507Z,0.00
2023-01-05T04:05:26.439Z,0.00
2023-01-05T04:06:26.476Z,0.00
2023-01-05T04:07:26.424Z,0.00
2023-01-05T04:08:26.434Z,0.00
2023-01-05T04:09:26.422Z,0.00
2023-01-05T04:10:26.423Z,0.00
2023-01-05T04:11:26.385Z,0.00
2023-01-05T04:12:26.381Z,0.00
2023-01-05T04:13:26.352Z,0.00
2023-01-05T04:14:26.374Z,0.00
2023-01-05T04:15:26.340Z,0.00
2023-01-05T04:17:49.415Z,0.00
2023-01-05T04:18:26.298Z,0.00
2023-01-05T04:19:26.479Z,0.00
2023-01-05T04:20:26.292Z,0.00
2023-01-05T04:21:26.275Z,0.00
2023-01-05T04:22:27.576Z,0.00
2023-01-05T04:23:27.294Z,0.00
2023-01-05T04:24:26.232Z,0.00
2023-01-05T04:25:26.259Z,0.00
2023-01-05T04:26:26.199Z,0.00
2023-01-05T04:27:26.223Z,0.00
2023-01-05T04:28:26.222Z,0.00
2023-01-05T04:29:26.200Z,0.00
2023-01-05T04:30:26.204Z,0.00
2023-01-05T04:31:26.220Z,0.00
2023-01-05T04:32:26.168Z,0.00
2023-01-05T04:33:26.122Z,0.00
2023-01-05T04:34:26.143Z,0.00
2023-01-05T04:35:26.150Z,0.00
2023-01-05T04:36:26.122Z,0.00
2023-01-05T04:37:26.151Z,0.00
2023-01-05T04:38:26.104Z,0.00
2023-01-05T04:39:26.110Z,0.00
2023-01-05T04:40:26.091Z,0.00
2023-01-05T04:41:26.055Z,0.00
2023-01-05T04:42:27.389Z,0.00
2023-01-05T04:43:26.093Z,0.00
2023-01-05T04:44:26.041Z,0.00
2023-01-05T04:45:26.952Z,0.00
2023-01-05T04:46:26.088Z,0.00
2023-01-05T04:47:25.991Z,0.00
2023-01-05T04:48:27.425Z,0.00
2023-01-05T04:49:25.989Z,0.00
2023-01-05T04:50:25.977Z,0.00
2023-01-05T04:51:26.270Z,0.00
2023-01-05T04:52:25.949Z,0.00
2023-01-05T04:53:25.940Z,0.00
2023-01-05T04:54:28.212Z,0.00
2023-01-05T04:55:25.955Z,0.00
2023-01-05T04:56:25.938Z,0.00
2023-01-05T04:57:28.317Z,0.00
2023-01-05T04:58:25.893Z,0.00
2023-01-05T04:59:25.890Z,0.00
2023-01-05T05:01:45.382Z,0.00
2023-01-05T05:01:47.103Z,0.00
2023-01-05T05:02:47.161Z,0.00
2023-01-05T05:03:47.100Z,0.00
2023-01-05T05:04:46.995Z,0.00
2023-01-05T05:05:46.962Z,0.00
2023-01-05T05:06:46.950Z,0.00
2023-01-05T05:07:46.979Z,0.00
2023-01-05T05:08:46.943Z,0.00
2023-01-05T05:09:46.927Z,0.00
2023-01-05T05:10:46.933Z,0.00
2023-01-05T05:11:46.902Z,0.00
2023-01-05T05:12:46.889Z,0.00
2023-01-05T05:13:46.892Z,0.00
2023-01-05T05:14:46.874Z,0.00
2023-01-05T05:15:46.915Z,0.00
2023-01-05T05:16:46.873Z,0.00
2023-01-05T05:17:47.468Z,0.00
2023-01-05T05:18:46.820Z,0.00
2023-01-05T05:19:46.811Z,0.00
2023-01-05T05:20:47.528Z,0.00
2023-01-05T05:21:46.836Z,0.00
2023-01-05T05:22:46.848Z,0.00
2023-01-05T05:23:48.446Z,0.00
2023-01-05T05:24:46.784Z,0.00
2023-01-05T05:25:46.787Z,0.00
2023-01-05T05:26:47.714Z,0.00
2023-01-05T05:27:46.727Z,0.00
2023-01-05T05:28:46.716Z,0.00
2023-01-05T05:29:48.467Z,0.00
2023-01-05T05:30:46.705Z,0.00
2023-01-05T05:31:46.763Z,0.00
2023-01-05T05:32:48.797Z,0.00
2023-01-05T05:33:46.682Z,0.00
2023-01-05T05:34:46.672Z,0.00
2023-01-05T05:35:49.154Z,0.00
2023-01-05T05:36:46.673Z,0.00
2023-01-05T05:37:50.149Z,0.00
2023-01-05T05:38:49.764Z,0.00
2023-01-05T05:39:46.618Z,0.00
2023-01-05T05:40:46.632Z,0.00
2023-01-05T05:41:50.272Z,0.00
2023-01-05T05:42:47.588Z,0.00
2023-01-05T05:43:46.572Z,0.00
2023-01-05T05:44:48.266Z,0.00
2023-01-05T05:45:50.642Z,0.00
2023-01-05T05:46:47.570Z,0.00
2023-01-05T05:47:47.637Z,0.00
2023-01-05T05:48:46.519Z,0.00
2023-01-05T05:49:46.498Z,0.00
2023-01-05T05:50:49.314Z,0.00
2023-01-05T05:51:46.515Z,0.00
2023-01-05T05:52:46.485Z,0.00
2023-01-05T05:53:46.479Z,0.00
2023-01-05T05:54:46.460Z,0.00
2023-01-05T05:55:46.452Z,0.00
2023-01-05T05:56:46.463Z,0.00
2023-01-05T05:57:46.425Z,0.00
2023-01-05T05:58:46.425Z,0.00
2023-01-05T05:59:53.189Z,0.00
2023-01-05T06:00:46.714Z,0.00
2023-01-05T06:01:49.112Z,0.00
2023-01-05T06:02:46.478Z,0.00
2023-01-05T06:03:46.455Z,0.00
2023-01-05T06:04:46.370Z,0.00
2023-01-05T06:05:46.514Z,0.00
2023-01-05T06:06:46.356Z,0.00
2023-01-05T06:07:46.395Z,0.00
2023-01-05T06:08:47.108Z,0.00
2023-01-05T06:09:46.380Z,0.00
2023-01-05T06:10:46.494Z,0.00
2023-01-05T06:11:46.333Z,0.00
2023-01-05T06:12:46.393Z,0.00
2023-01-05T06:13:46.558Z,0.00
2023-01-05T06:14:46.299Z,0.00
2023-01-05T06:15:47.331Z,0.00
2023-01-05T06:16:46.523Z,0.00
2023-01-05T06:17:46.274Z,0.00
2023-01-05T06:18:46.297Z,0.00
2023-01-05T06:19:46.241Z,0.00
2023-01-05T06:20:46.207Z,0.00
2023-01-05T06:21:46.203Z,0.00
2023-01-05T06:22:46.182Z,0.00
2023-01-05T06:23:46.215Z,0.00
2023-01-05T06:24:46.230Z,0.00
2023-01-05T06:25:46.169Z,0.00
2023-01-05T06:26:46.185Z,0.00
2023-01-05T06:27:46.146Z,0.00
2023-01-05T06:28:46.135Z,0.00
2023-01-05T06:29:46.114Z,0.00
2023-01-05T06:30:46.110Z,0.00
2023-01-05T06:31:46.167Z,0.00
2023-01-05T06:32:46.096Z,0.00
2023-01-05T06:33:46.131Z,0.00
2023-01-05T06:34:46.092Z,0.00
2023-01-05T06:35:46.055Z,0.00
2023-01-05T06:36:46.124Z,0.00
2023-01-05T06:37:46.023Z,0.00
2023-01-05T06:38:46.031Z,0.00
2023-01-05T06:39:46.063Z,0.00
2023-01-05T06:40:46.016Z,0.00
2023-01-05T06:41:45.997Z,0.00
2023-01-05T06:42:47.444Z,0.00
2023-01-05T06:43:45.983Z,0.00
2023-01-05T06:44:45.962Z,0.00
2023-01-05T06:45:47.461Z,0.00
2023-01-05T06:46:45.995Z,0.00
2023-01-05T06:47:45.937Z,0.00
2023-01-05T06:48:47.472Z,0.00
2023-01-05T06:49:45.943Z,0.00
2023-01-05T06:50:45.939Z,0.00
2023-01-05T06:51:47.641Z,0.00
2023-01-05T06:52:45.883Z,0.00
2023-01-05T06:53:45.878Z,0.00
2023-01-05T06:54:47.469Z,0.00
2023-01-05T06:55:46.919Z,0.00
2023-01-05T06:56:47.920Z,4.00
2023-01-05T07:01:20.651Z,0.00
2023-01-05T07:02:26.197Z,4.00
2023-01-05T07:03:43.728Z,4.00
2023-01-05T07:04:20.576Z,4.00
2023-01-05T07:05:23.452Z,4.00
2023-01-05T07:06:20.463Z,8.00
2023-01-05T07:07:20.504Z,4.00
2023-01-05T07:08:20.485Z,8.00
2023-01-05T07:09:21.114Z,16.00
2023-01-05T07:10:20.383Z,16.00
2023-01-05T07:11:20.406Z,16.00
2023-01-05T07:12:20.417Z,16.00
2023-01-05T07:13:20.418Z,16.00
2023-01-05T07:14:21.553Z,20.00
2023-01-05T07:15:20.435Z,24.00
2023-01-05T07:16:20.402Z,28.00
2023-01-05T07:17:21.470Z,32.00
2023-01-05T07:18:20.794Z,40.00
2023-01-05T07:19:20.383Z,40.00
2023-01-05T07:20:21.565Z,44.00
2023-01-05T07:21:20.277Z,56.00
2023-01-05T07:22:20.304Z,68.00
2023-01-05T07:23:22.218Z,68.00
2023-01-05T07:24:20.230Z,68.00
2023-01-05T07:25:20.285Z,68.00
2023-01-05T07:26:21.039Z,76.00
2023-01-05T07:27:20.235Z,80.00
2023-01-05T07:28:20.212Z,80.00
2023-01-05T07:29:23.155Z,84.00
2023-01-05T07:30:20.657Z,84.00
2023-01-05T07:31:20.185Z,84.00
2023-01-05T07:32:24.438Z,88.00
2023-01-05T07:33:20.165Z,92.00
2023-01-05T07:34:20.177Z,92.00
2023-01-05T07:35:23.719Z,96.00
2023-01-05T07:36:20.907Z,108.00
2023-01-05T07:37:21.049Z,120.00
2023-01-05T07:38:21.497Z,120.00
2023-01-05T07:39:21.043Z,116.00
2023-01-05T07:40:20.248Z,124.00
2023-01-05T07:41:24.078Z,136.00
2023-01-05T07:42:20.473Z,152.00
2023-01-05T07:43:20.195Z,168.00
2023-01-05T07:44:26.688Z,180.00
2023-01-05T07:45:20.156Z,168.00
2023-01-05T07:46:21.264Z,144.00
2023-01-05T07:47:26.371Z,140.00
2023-01-05T07:48:23.663Z,152.00
2023-01-05T07:49:20.581Z,180.00
2023-01-05T07:50:20.279Z,220.00
2023-01-05T07:51:20.009Z,272.00
2023-01-05T07:52:20.089Z,332.00
2023-01-05T07:53:19.987Z,380.00
2023-01-05T07:54:41.747Z,412.00
2023-01-05T07:55:21.367Z,488.00
2023-01-05T07:56:19.897Z,528.00
2023-01-05T07:57:19.948Z,476.00
2023-01-05T07:58:19.878Z,364.00
2023-01-05T07:59:19.908Z,336.00
2023-01-05T08:00:20.448Z,348.00
2023-01-05T08:01:19.959Z,364.00
2023-01-05T08:02:20.121Z,376.00
2023-01-05T08:03:19.822Z,364.00
2023-01-05T08:04:19.914Z,340.00
2023-01-05T08:05:19.813Z,320.00
2023-01-05T08:06:19.817Z,308.00
2023-01-05T08:07:19.839Z,316.00
2023-01-05T08:08:24.328Z,328.00
2023-01-05T08:09:21.208Z,352.00
2023-01-05T08:10:19.872Z,384.00
2023-01-05T08:11:19.997Z,392.00
2023-01-05T08:12:19.998Z,368.00
2023-01-05T08:13:20.595Z,336.00
2023-01-05T08:14:20.555Z,320.00
2023-01-05T08:15:19.703Z,264.00
2023-01-05T08:16:19.748Z,228.00
2023-01-05T08:17:19.687Z,228.00
2023-01-05T08:18:20.480Z,248.00
2023-01-05T08:19:19.641Z,288.00
2023-01-05T08:20:19.730Z,336.00
2023-01-05T08:21:20.657Z,368.00
2023-01-05T08:22:22.321Z,372.00
2023-01-05T08:23:25.681Z,376.00
2023-01-05T08:24:20.786Z,408.00
2023-01-05T08:25:20.569Z,432.00
2023-01-05T08:26:19.647Z,524.00
2023-01-05T08:27:19.656Z,608.00
2023-01-05T10:09:53.087Z,2944.00
2023-01-05T10:11:03.643Z,2524.00
2023-01-05T10:34:24.997Z,1508.00
2023-01-05T10:34:58.065Z,1464.00
2023-01-05T10:36:04.081Z,1444.00
2023-01-05T11:20:29.776Z,3648.00
2023-01-05T11:21:27.183Z,3940.00
2023-01-05T11:45:07.244Z,8684.00
2023-01-05T11:46:07.886Z,12404.00
2023-01-05T11:47:08.336Z,13060.00
2023-01-05T11:48:07.355Z,12060.00
2023-01-05T12:00:16.103Z,3756.00
2023-01-05T12:00:55.064Z,3304.00
2023-01-05T12:01:54.981Z,3544.00
2023-01-05T12:26:07.745Z,4772.00
2023-01-05T12:26:15.044Z,5248.00
2023-01-05T12:27:15.038Z,7312.00
2023-01-05T13:15:54.760Z,1052.00
2023-01-05T13:16:58.430Z,976.00
2023-01-05T13:17:54.585Z,836.00
2023-01-05T14:06:35.038Z,432.00
2023-01-05T14:07:27.224Z,456.00
2023-01-05T14:18:42.960Z,372.00
2023-01-05T14:19:37.510Z,356.00
2023-01-05T14:20:38.024Z,328.00
2023-01-05T15:46:48.086Z,4.00
2023-01-05T15:47:39.362Z,4.00
2023-01-05T15:48:31.345Z,4.00
2023-01-05T15:49:34.348Z,4.00
2023-01-05T15:50:50.054Z,4.00
2023-01-05T15:51:31.356Z,0.00
2023-01-05T15:52:31.370Z,0.00
2023-01-05T16:19:56.725Z,4.00
2023-01-05T16:20:34.779Z,8.00
2023-01-05T16:21:34.013Z,8.00
2023-01-05T16:22:33.971Z,0.00
2023-01-05T16:23:34.218Z,0.00
2023-01-05T16:24:34.174Z,0.00
2023-01-05T16:25:33.958Z,0.00
2023-01-05T16:26:33.950Z,0.00
2023-01-05T16:27:34.709Z,0.00
2023-01-05T16:28:33.921Z,0.00
2023-01-05T16:29:33.885Z,4.00
2023-01-05T16:30:33.968Z,4.00
2023-01-05T16:31:33.890Z,4.00
2023-01-05T16:32:33.917Z,0.00
2023-01-05T16:33:33.846Z,0.00
2023-01-05T16:34:33.835Z,0.00
2023-01-05T16:35:33.934Z,0.00
2023-01-05T16:36:33.845Z,0.00
2023-01-05T16:37:33.847Z,0.00
2023-01-05T16:38:33.812Z,0.00
2023-01-05T16:39:33.790Z,0.00
2023-01-05T16:40:33.830Z,0.00
2023-01-05T16:41:33.767Z,0.00
2023-01-05T16:42:33.799Z,0.00
2023-01-05T16:43:33.764Z,0.00
2023-01-05T16:44:33.733Z,0.00
2023-01-05T16:45:33.723Z,0.00
2023-01-05T16:46:33.777Z,0.00
2023-01-05T16:47:33.721Z,4.00
2023-01-05T16:48:33.686Z,8.00
2023-01-05T16:49:33.678Z,8.00
2023-01-05T16:50:33.671Z,0.00
2023-01-05T16:51:33.755Z,0.00
2023-01-05T16:52:46.087Z,0.00
2023-01-05T16:53:34.683Z,0.00
2023-01-05T16:54:33.637Z,0.00
2023-01-05T16:55:33.621Z,0.00
2023-01-05T16:56:33.609Z,0.00
2023-01-05T16:57:33.623Z,0.00
2023-01-05T16:58:33.617Z,0.00
2023-01-05T16:59:33.618Z,0.00
2023-01-05T17:00:33.574Z,0.00
2023-01-05T17:01:33.566Z,0.00
2023-01-05T17:02:33.545Z,0.00
2023-01-05T17:03:33.555Z,0.00
2023-01-05T17:04:33.582Z,0.00
2023-01-05T17:05:33.521Z,0.00
2023-01-05T17:06:33.507Z,0.00
2023-01-05T17:07:33.603Z,0.00
2023-01-05T17:08:33.494Z,0.00
2023-01-05T17:09:33.474Z,0.00
2023-01-05T17:10:33.460Z,0.00
2023-01-05T17:11:33.462Z,0.00
2023-01-05T17:12:33.596Z,0.00
2023-01-05T17:13:33.447Z,0.00
2023-01-05T17:14:33.413Z,0.00
2023-01-05T17:15:33.411Z,0.00
2023-01-05T17:16:33.630Z,0.00
2023-01-05T17:17:33.390Z,0.00
2023-01-05T17:18:33.394Z,0.00
2023-01-05T17:19:33.368Z,0.00
2023-01-05T17:20:33.357Z,0.00
2023-01-05T17:21:33.376Z,0.00
2023-01-05T17:22:33.327Z,0.00
2023-01-05T17:23:33.349Z,0.00
2023-01-05T17:24:33.322Z,0.00
2023-01-05T17:25:33.307Z,0.00
2023-01-05T17:26:33.322Z,0.00
2023-01-05T17:27:33.280Z,0.00
2023-01-05T17:28:33.297Z,0.00
2023-01-05T17:29:33.270Z,0.00
2023-01-05T17:30:33.294Z,0.00
2023-01-05T17:31:34.430Z,0.00
2023-01-05T17:32:34.427Z,0.00
2023-01-05T17:33:34.444Z,0.00
2023-01-05T17:34:34.401Z,0.00
2023-01-05T17:35:34.401Z,0.00
2023-01-05T17:36:34.396Z,0.00
2023-01-05T17:37:34.362Z,0.00
2023-01-05T17:38:34.379Z,0.00
2023-01-05T17:39:34.517Z,0.00
2023-01-05T17:40:34.396Z,0.00
2023-01-05T17:42:34.308Z,0.00
2023-01-05T17:43:34.380Z,0.00
2023-01-05T17:44:34.316Z,0.00
2023-01-05T17:45:34.296Z,0.00
2023-01-05T17:46:34.304Z,0.00
2023-01-05T17:48:34.291Z,0.00
2023-01-05T17:49:35.274Z,0.00
2023-01-05T17:50:34.257Z,0.00
2023-01-05T17:51:34.229Z,0.00
2023-01-05T17:52:34.227Z,0.00
2023-01-05T17:53:34.258Z,0.00
2023-01-05T17:54:34.221Z,0.00
2023-01-05T17:55:34.265Z,0.00
2023-01-05T17:56:34.186Z,0.00
2023-01-05T17:57:34.173Z,0.00
2023-01-05T17:58:34.198Z,0.00
2023-01-05T17:59:34.153Z,0.00
2023-01-05T18:00:34.140Z,0.00
2023-01-05T18:01:34.295Z,0.00
2023-01-05T18:02:34.185Z,0.00
2023-01-05T18:03:34.139Z,0.00
2023-01-05T18:04:34.135Z,0.00
2023-01-05T18:05:34.099Z,0.00
2023-01-05T18:06:34.120Z,0.00
2023-01-05T18:07:34.068Z,0.00
2023-01-05T18:08:34.081Z,0.00
2023-01-05T18:09:34.060Z,0.00
2023-01-05T18:10:34.054Z,0.00
2023-01-05T18:12:34.025Z,0.00
2023-01-05T18:13:34.046Z,0.00
2023-01-05T18:14:34.004Z,0.00
2023-01-05T18:15:34.018Z,0.00
2023-01-05T18:16:33.983Z,0.00
2023-01-05T18:17:33.964Z,0.00
2023-01-05T18:19:33.997Z,0.00
2023-01-05T18:22:34.931Z,0.00
2023-01-05T18:23:33.916Z,0.00
2023-01-05T18:24:33.915Z,0.00
2023-01-05T18:25:33.886Z,0.00
2023-01-05T18:26:33.884Z,0.00
2023-01-05T18:27:33.985Z,0.00
2023-01-05T18:28:33.882Z,0.00
2023-01-05T18:29:33.827Z,0.00
2023-01-05T18:30:33.835Z,0.00
2023-01-05T18:31:35.858Z,0.00
2023-01-05T18:32:33.851Z,0.00
2023-01-05T18:33:33.814Z,0.00
2023-01-05T18:34:33.965Z,0.00
2023-01-05T18:35:35.108Z,0.00
2023-01-05T18:36:33.801Z,0.00
2023-01-05T18:37:33.787Z,0.00
2023-01-05T18:38:33.807Z,0.00
2023-01-05T18:39:33.973Z,0.00
2023-01-05T18:40:33.884Z,0.00
2023-01-05T18:41:33.888Z,0.00
2023-01-05T18:42:33.779Z,0.00
2023-01-05T18:43:33.867Z,0.00
2023-01-05T18:44:33.762Z,0.00
2023-01-05T18:45:39.152Z,0.00
2023-01-05T18:46:35.942Z,0.00
2023-01-05T18:47:33.860Z,0.00
2023-01-05T18:48:33.759Z,0.00
2023-01-05T18:49:34.923Z,0.00
2023-01-05T18:50:33.752Z,0.00
2023-01-05T18:51:33.715Z,0.00
2023-01-05T18:52:33.647Z,0.00
2023-01-05T18:53:33.734Z,0.00
2023-01-05T18:54:33.679Z,0.00
2023-01-05T18:55:33.779Z,0.00
2023-01-05T18:56:33.613Z,0.00
2023-01-05T18:57:40.143Z,0.00
2023-01-05T18:58:34.655Z,0.00
2023-01-05T18:59:33.703Z,0.00
2023-01-05T19:00:33.704Z,0.00
2023-01-05T19:01:34.436Z,0.00
2023-01-05T19:02:33.601Z,0.00
2023-01-05T19:03:33.887Z,0.00
2023-01-05T19:04:33.936Z,0.00
2023-01-05T19:05:33.611Z,0.00
2023-01-05T19:06:33.567Z,0.00
2023-01-05T19:07:33.525Z,0.00
2023-01-05T19:08:33.771Z,0.00
2023-01-05T19:09:34.744Z,0.00
2023-01-05T19:10:33.496Z,0.00
2023-01-05T19:11:33.499Z,0.00
2023-01-05T19:12:33.570Z,0.00
2023-01-05T19:13:33.817Z,0.00
2023-01-05T19:14:33.554Z,0.00
2023-01-05T19:15:33.819Z,0.00
2023-01-05T19:16:33.445Z,0.00
2023-01-05T19:17:33.462Z,0.00
2023-01-05T19:18:33.791Z,0.00
2023-01-05T19:19:33.620Z,0.00
2023-01-05T19:20:33.721Z,0.00
2023-01-05T19:21:33.511Z,0.00
2023-01-05T19:22:33.672Z,0.00
2023-01-05T19:23:33.506Z,0.00
2023-01-05T19:24:33.532Z,0.00
2023-01-05T19:25:33.501Z,0.00
2023-01-05T19:26:33.459Z,0.00
2023-01-05T19:27:33.423Z,0.00
2023-01-05T19:28:34.316Z,0.00
2023-01-05T19:29:33.774Z,0.00
2023-01-05T19:30:33.470Z,0.00
2023-01-05T19:31:33.330Z,0.00
2023-01-05T19:32:33.515Z,0.00
2023-01-05T19:33:33.258Z,0.00
2023-01-05T19:34:33.223Z,0.00
2023-01-05T19:35:33.356Z,0.00
2023-01-05T19:36:33.365Z,0.00
2023-01-05T19:37:34.459Z,0.00
2023-01-05T19:38:33.342Z,0.00
2023-01-05T19:39:33.483Z,0.00
2023-01-05T19:40:33.473Z,0.00
2023-01-05T19:41:33.343Z,0.00
2023-01-05T19:42:33.199Z,0.00
2023-01-05T19:43:33.426Z,0.00
2023-01-05T19:44:33.376Z,0.00
2023-01-05T19:45:33.143Z,0.00
2023-01-05T19:46:33.176Z,0.00
2023-01-05T19:47:33.501Z,0.00
2023-01-05T19:48:33.183Z,0.00
2023-01-05T19:49:33.143Z,0.00
2023-01-05T19:50:33.460Z,0.00
2023-01-05T19:51:33.242Z,0.00
2023-01-05T19:52:33.335Z,0.00
2023-01-05T19:53:33.161Z,0.00
2023-01-05T19:54:33.196Z,0.00
2023-01-05T19:55:33.099Z,0.00
2023-01-05T19:56:34.531Z,0.00
2023-01-05T19:57:33.021Z,0.00
2023-01-05T19:58:33.063Z,0.00
2023-01-05T19:59:33.045Z,0.00
2023-01-05T20:00:32.981Z,0.00
2023-01-05T20:01:32.993Z,0.00
2023-01-05T20:02:32.969Z,0.00
2023-01-05T20:03:33.068Z,0.00
2023-01-05T20:04:32.943Z,0.00
2023-01-05T20:05:33.049Z,0.00
2023-01-05T20:06:33.022Z,0.00
2023-01-05T20:07:33.136Z,0.00
2023-01-05T20:08:32.967Z,0.00
2023-01-05T20:09:32.923Z,0.00
2023-01-05T20:10:33.244Z,0.00
2023-01-05T20:12:14.827Z,0.00
2023-01-05T20:12:33.818Z,0.00
2023-01-05T20:13:32.823Z,0.00
2023-01-05T20:14:33.229Z,0.00
2023-01-05T20:15:33.139Z,0.00
2023-01-05T20:16:32.922Z,0.00
2023-01-05T20:17:32.807Z,0.00
2023-01-05T20:18:33.074Z,0.00
2023-01-05T20:19:32.882Z,0.00
2023-01-05T20:20:32.940Z,0.00
2023-01-05T20:21:32.818Z,0.00
2023-01-05T20:22:32.760Z,0.00
2023-01-05T20:23:32.993Z,0.00
2023-01-05T20:24:32.745Z,0.00
2023-01-05T20:25:32.724Z,0.00
2023-01-05T20:26:32.857Z,0.00
2023-01-05T20:27:32.690Z,0.00
2023-01-05T20:28:32.721Z,0.00
2023-01-05T20:29:33.227Z,0.00
2023-01-05T20:30:32.663Z,0.00
2023-01-05T20:31:32.780Z,0.00
2023-01-05T20:32:32.755Z,0.00
2023-01-05T20:33:32.660Z,0.00
2023-01-05T20:34:32.659Z,0.00
2023-01-05T20:35:32.733Z,0.00
2023-01-05T20:36:32.605Z,0.00
2023-01-05T20:37:32.723Z,0.00
2023-01-05T20:38:32.638Z,0.00
2023-01-05T20:39:32.668Z,0.00
2023-01-05T20:40:32.617Z,0.00
2023-01-05T20:41:32.613Z,0.00
2023-01-05T20:42:32.561Z,0.00
2023-01-05T20:43:32.542Z,0.00
2023-01-05T20:44:32.570Z,0.00
2023-01-05T20:45:32.523Z,0.00
2023-01-05T20:46:32.599Z,0.00
2023-01-05T20:47:43.083Z,0.00
2023-01-05T20:48:34.462Z,0.00
2023-01-05T20:49:32.474Z,0.00
2023-01-05T20:50:32.704Z,0.00
2023-01-05T20:51:32.565Z,0.00
2023-01-05T20:52:32.465Z,0.00
2023-01-05T20:53:32.455Z,0.00
2023-01-05T20:54:32.878Z,0.00
2023-01-05T20:55:32.435Z,0.00
2023-01-05T20:56:32.544Z,0.00
2023-01-05T20:57:32.712Z,0.00
2023-01-05T20:58:32.608Z,0.00
2023-01-05T20:59:32.449Z,0.00
2023-01-05T21:00:32.482Z,0.00
2023-01-05T21:01:32.383Z,8.00
2023-01-05T21:02:32.423Z,8.00
2023-01-05T21:03:32.355Z,8.00
2023-01-05T21:04:32.376Z,8.00
2023-01-05T21:05:32.612Z,8.00
2023-01-05T21:06:32.341Z,8.00
2023-01-05T21:07:32.372Z,8.00
2023-01-05T21:08:32.480Z,8.00
2023-01-05T21:09:32.463Z,8.00
2023-01-05T21:10:32.511Z,0.00
2023-01-05T21:11:32.474Z,0.00
2023-01-05T21:12:32.233Z,0.00
2023-01-05T21:13:33.251Z,0.00
2023-01-05T21:14:33.467Z,0.00
2023-01-05T21:15:32.232Z,0.00
2023-01-05T21:16:32.312Z,0.00
2023-01-05T21:17:32.347Z,0.00
2023-01-05T21:18:32.179Z,0.00
2023-01-05T21:19:32.525Z,0.00
2023-01-05T21:20:32.298Z,0.00
2023-01-05T21:21:32.244Z,0.00
2023-01-05T21:22:32.182Z,0.00
2023-01-05T21:23:32.330Z,0.00
2023-01-05T21:24:32.343Z,0.00
2023-01-05T21:26:06.391Z,4.00
2023-01-05T21:26:33.277Z,8.00
2023-01-05T21:27:32.103Z,8.00
2023-01-05T21:28:32.131Z,0.00
2023-01-05T21:29:32.118Z,0.00
2023-01-05T21:30:32.224Z,0.00
2023-01-05T21:31:32.115Z,4.00